createdAt,value
2022-08-11T00:01:36.545Z,4.00
2022-08-11T00:03:45.383Z,3.60
2022-08-11T00:05:51.684Z,3.27
2022-08-11T00:07:57.223Z,3.43
2022-08-11T00:10:01.404Z,3.77
2022-08-11T00:12:13.302Z,3.60
2022-08-11T00:14:19.921Z,3.20
2022-08-11T00:16:25.322Z,3.70
2022-08-11T00:18:28.430Z,4.30
2022-08-11T00:20:33.199Z,3.60
2022-08-11T00:22:37.718Z,3.50
2022-08-11T00:24:53.379Z,3.70
2022-08-11T00:26:58.860Z,3.80
2022-08-11T00:29:09.840Z,3.67
2022-08-11T00:31:25.599Z,3.50
2022-08-11T00:33:41.868Z,3.80
2022-08-11T00:35:57.044Z,3.80
2022-08-11T00:38:01.064Z,3.80
2022-08-11T00:40:07.118Z,3.73
2022-08-11T00:42:20.206Z,3.60
2022-08-11T00:44:30.954Z,4.17
2022-08-11T00:46:44.020Z,3.77
2022-08-11T00:49:11.894Z,4.23
2022-08-11T00:51:22.650Z,3.50
2022-08-11T00:53:37.614Z,3.60
2022-08-11T00:56:19.818Z,4.33
2022-08-11T00:59:01.276Z,3.80
2022-08-11T01:01:12.176Z,4.00
2022-08-11T01:03:26.219Z,3.70
2022-08-11T01:06:01.773Z,3.90
2022-08-11T01:08:40.469Z,4.07
2022-08-11T01:11:00.704Z,4.10
2022-08-11T01:13:15.847Z,3.70
2022-08-11T01:15:54.753Z,3.90
2022-08-11T01:18:31.225Z,4.13
2022-08-11T01:21:08.859Z,4.10
2022-08-11T01:23:43.928Z,3.90
2022-08-11T01:26:24.930Z,3.90
2022-08-11T01:28:59.060Z,4.10
2022-08-11T01:31:39.164Z,4.30
2022-08-11T01:34:27.456Z,4.40
2022-08-11T01:37:05.487Z,4.03
2022-08-11T01:39:37.448Z,4.17
2022-08-11T01:42:13.691Z,4.27
2022-08-11T01:44:39.942Z,4.20
2022-08-11T01:46:51.521Z,4.20
2022-08-11T01:50:06.642Z,4.40
2022-08-11T01:51:44.707Z,4.67
2022-08-11T01:53:55.768Z,4.50
2022-08-11T01:56:14.113Z,4.40
2022-08-11T01:58:39.509Z,4.27
2022-08-11T02:00:54.512Z,4.67
2022-08-11T02:03:08.121Z,4.70
2022-08-11T02:05:22.413Z,4.70
2022-08-11T02:07:36.849Z,5.17
2022-08-11T02:10:01.913Z,4.50
2022-08-11T02:12:28.101Z,4.60
2022-08-11T02:15:04.771Z,5.03
2022-08-11T02:17:18.810Z,4.00
2022-08-11T02:19:45.331Z,4.30
2022-08-11T02:22:13.749Z,5.33
2022-08-11T02:24:22.973Z,4.17
2022-08-11T02:26:34.985Z,5.30
2022-08-11T02:28:52.076Z,4.57
2022-08-11T02:32:24.306Z,4.70
2022-08-11T02:33:45.171Z,5.03
2022-08-11T02:35:52.872Z,4.60
2022-08-11T02:38:12.582Z,4.50
2022-08-11T02:40:32.388Z,4.90
2022-08-11T02:42:41.507Z,4.40
2022-08-11T02:44:57.040Z,4.80
2022-08-11T02:47:10.326Z,4.57
2022-08-11T02:49:33.452Z,4.43
2022-08-11T02:51:43.614Z,5.00
2022-08-11T02:53:56.315Z,4.77
2022-08-11T02:56:09.598Z,4.50
2022-08-11T02:58:17.522Z,4.27
2022-08-11T03:00:28.132Z,4.63
2022-08-11T03:02:56.473Z,4.37
2022-08-11T03:05:08.240Z,4.90
2022-08-11T03:07:29.130Z,5.10
2022-08-11T03:09:46.506Z,4.40
2022-08-11T03:12:14.524Z,5.00
2022-08-11T03:14:40.838Z,4.80
2022-08-11T03:16:52.783Z,5.20
2022-08-11T03:19:07.890Z,4.90
2022-08-11T03:21:18.550Z,5.28
2022-08-11T03:23:30.811Z,5.20
2022-08-11T03:25:39.450Z,5.20
2022-08-11T03:27:53.707Z,4.80
2022-08-11T03:30:06.869Z,5.30
2022-08-11T03:32:22.813Z,5.40
2022-08-11T03:34:26.268Z,5.57
2022-08-11T03:37:16.897Z,5.70
2022-08-11T03:39:28.273Z,5.90
2022-08-11T03:42:02.563Z,6.20
2022-08-11T03:44:20.980Z,6.10
2022-08-11T03:46:36.719Z,6.53
2022-08-11T03:48:55.678Z,6.05
2022-08-11T03:51:13.238Z,5.80
2022-08-11T03:53:28.031Z,5.80
2022-08-11T03:55:57.883Z,6.10
2022-08-11T03:58:31.819Z,5.95
2022-08-11T04:00:55.481Z,6.25
2022-08-11T04:03:41.593Z,6.57
2022-08-11T04:06:30.949Z,5.90
2022-08-11T04:09:01.410Z,6.80
2022-08-11T04:11:35.087Z,6.55
2022-08-11T04:14:30.683Z,6.70
2022-08-11T04:16:44.085Z,6.87
2022-08-11T04:19:24.090Z,6.40
2022-08-11T04:22:09.340Z,6.07
2022-08-11T04:24:39.950Z,6.03
2022-08-11T04:27:22.533Z,5.93
2022-08-11T04:30:02.122Z,6.00
2022-08-11T04:32:30.153Z,5.18
2022-08-11T04:34:59.979Z,5.65
2022-08-11T04:37:38.917Z,5.95
2022-08-11T04:40:10.643Z,6.15
2022-08-11T04:43:12.583Z,5.95
2022-08-11T04:45:51.685Z,6.03
2022-08-11T04:48:27.222Z,5.45
2022-08-11T04:51:16.001Z,5.47
2022-08-11T04:54:01.229Z,5.70
2022-08-11T04:56:30.309Z,5.43
2022-08-11T04:59:10.795Z,5.90
2022-08-11T05:01:43.981Z,6.22
2022-08-11T05:04:31.312Z,5.47
2022-08-11T05:07:09.401Z,5.87
2022-08-11T05:09:36.640Z,5.60
2022-08-11T05:12:07.295Z,5.80
2022-08-11T05:14:51.918Z,5.40
2022-08-11T05:17:27.747Z,5.80
2022-08-11T05:19:48.411Z,5.90
2022-08-11T05:22:13.311Z,5.80
2022-08-11T05:24:39.664Z,5.80
2022-08-11T05:27:09.963Z,5.80
2022-08-11T05:29:53.702Z,5.20
2022-08-11T05:32:17.748Z,5.73
2022-08-11T05:34:42.359Z,5.57
2022-08-11T05:36:49.273Z,6.10
2022-08-11T05:39:21.023Z,5.37
2022-08-11T05:41:57.775Z,5.87
2022-08-11T05:44:22.365Z,5.50
2022-08-11T05:46:46.277Z,5.60
2022-08-11T05:49:07.677Z,5.33
2022-08-11T05:51:30.000Z,5.60
2022-08-11T05:53:51.451Z,6.53
2022-08-11T05:56:12.200Z,5.53
2022-08-11T05:58:15.331Z,5.90
2022-08-11T06:00:18.220Z,5.57
2022-08-11T06:02:22.364Z,6.03
2022-08-11T06:04:26.442Z,5.70
2022-08-11T06:06:30.405Z,5.70
2022-08-11T06:08:36.388Z,5.60
2022-08-11T06:10:41.708Z,5.30
2022-08-11T06:12:44.583Z,5.33
2022-08-11T06:14:49.428Z,5.43
2022-08-11T06:16:56.780Z,5.97
2022-08-11T06:19:01.146Z,5.60
2022-08-11T06:21:11.074Z,5.30
2022-08-11T06:23:15.328Z,5.17
2022-08-11T06:25:19.510Z,6.00
2022-08-11T06:27:22.890Z,6.13
2022-08-11T06:29:38.286Z,5.67
2022-08-11T06:31:57.829Z,6.00
2022-08-11T06:34:27.375Z,5.17
2022-08-11T06:36:35.706Z,5.50
2022-08-11T06:38:50.573Z,5.20
2022-08-11T06:41:14.440Z,5.43
2022-08-11T06:43:21.507Z,5.80
2022-08-11T06:45:31.864Z,5.57
2022-08-11T06:47:35.582Z,5.87
2022-08-11T06:50:02.455Z,5.30
2022-08-11T06:52:07.827Z,5.17
2022-08-11T06:54:33.581Z,6.37
2022-08-11T06:57:26.346Z,5.60
2022-08-11T06:59:40.124Z,5.50
2022-08-11T07:01:57.018Z,5.77
2022-08-11T07:04:07.398Z,5.83
2022-08-11T07:06:22.693Z,5.30
2022-08-11T07:09:10.484Z,5.60
2022-08-11T07:12:02.614Z,5.53
2022-08-11T07:14:29.200Z,5.90
2022-08-11T07:16:34.727Z,6.00
2022-08-11T07:18:56.464Z,5.90
2022-08-11T07:22:00.169Z,6.10
2022-08-11T07:24:12.840Z,5.33
2022-08-11T07:26:33.646Z,5.13
2022-08-11T07:28:59.125Z,5.60
2022-08-11T07:31:08.226Z,4.90
2022-08-11T07:33:14.493Z,4.60
2022-08-11T07:35:39.770Z,5.50
2022-08-11T07:37:44.828Z,5.20
2022-08-11T07:39:50.723Z,4.60
2022-08-11T07:41:57.050Z,5.03
2022-08-11T07:44:09.166Z,4.60
2022-08-11T07:46:30.285Z,5.00
2022-08-11T07:48:53.221Z,4.67
2022-08-11T07:51:14.157Z,5.03
2022-08-11T07:53:19.047Z,4.70
2022-08-11T07:55:51.132Z,4.50
2022-08-11T07:58:15.994Z,4.73
2022-08-11T08:00:40.055Z,4.73
2022-08-11T08:03:02.589Z,5.10
2022-08-11T08:05:25.506Z,5.20
2022-08-11T08:07:46.124Z,4.87
2022-08-11T08:10:09.894Z,4.77
2022-08-11T08:12:38.993Z,4.70
2022-08-11T08:15:01.108Z,5.00
2022-08-11T08:17:22.048Z,4.90
2022-08-11T08:19:25.338Z,4.13
2022-08-11T08:21:28.415Z,4.53
2022-08-11T08:23:34.247Z,4.67
2022-08-11T08:25:41.209Z,4.47
2022-08-11T08:27:45.954Z,4.90
2022-08-11T08:30:07.637Z,4.80
2022-08-11T08:32:12.207Z,4.40
2022-08-11T08:34:15.771Z,4.73
2022-08-11T08:36:20.404Z,4.43
2022-08-11T08:38:23.176Z,4.63
2022-08-11T08:40:26.243Z,5.87
2022-08-11T08:42:31.922Z,4.67
2022-08-11T08:44:42.103Z,4.40
2022-08-11T08:46:53.822Z,4.87
2022-08-11T08:49:01.182Z,4.50
2022-08-11T08:52:01.926Z,4.37
2022-08-11T08:54:06.049Z,5.07
2022-08-11T08:56:11.233Z,4.20
2022-08-11T08:58:16.874Z,4.73
2022-08-11T09:00:23.680Z,4.63
2022-08-11T09:02:33.878Z,4.63
2022-08-11T09:04:38.351Z,4.00
2022-08-11T09:06:43.883Z,4.07
2022-08-11T09:08:54.530Z,4.30
2022-08-11T09:11:16.444Z,4.30
2022-08-11T09:13:20.238Z,4.03
2022-08-11T09:15:26.053Z,4.30
2022-08-11T09:17:30.818Z,4.50
2022-08-11T09:19:33.580Z,4.20
2022-08-11T09:21:48.319Z,3.90
2022-08-11T09:24:17.077Z,4.23
2022-08-11T09:26:45.942Z,3.90
2022-08-11T09:28:50.096Z,4.00
2022-08-11T09:30:55.100Z,4.20
2022-08-11T09:33:00.403Z,4.60
2022-08-11T09:35:04.656Z,3.70
2022-08-11T09:37:53.682Z,3.73
2022-08-11T09:40:10.375Z,4.00
2022-08-11T09:42:16.571Z,3.97
2022-08-11T09:44:37.506Z,4.00
2022-08-11T09:46:42.566Z,4.80
2022-08-11T09:48:47.519Z,3.97
2022-08-11T09:50:52.690Z,3.90
2022-08-11T09:53:34.881Z,4.00
2022-08-11T09:55:19.683Z,3.83
2022-08-11T09:57:41.040Z,3.90
2022-08-11T09:59:43.989Z,4.67
2022-08-11T10:01:51.551Z,4.17
2022-08-11T10:03:59.896Z,3.83
2022-08-11T10:06:34.081Z,4.10
2022-08-11T10:08:40.553Z,3.67
2022-08-11T10:10:44.853Z,3.90
2022-08-11T10:12:52.382Z,4.10
2022-08-11T10:15:15.190Z,4.20
2022-08-11T10:17:22.874Z,3.83
2022-08-11T10:19:28.181Z,3.70
2022-08-11T10:21:37.441Z,3.83
2022-08-11T10:24:01.279Z,3.80
2022-08-11T10:26:27.415Z,4.03
2022-08-11T10:28:55.844Z,3.73
2022-08-11T10:31:18.450Z,3.40
2022-08-11T10:33:45.709Z,4.23
2022-08-11T10:36:01.540Z,3.80
2022-08-11T10:38:15.742Z,4.13
2022-08-11T10:40:22.611Z,3.93
2022-08-11T10:42:57.189Z,4.00
2022-08-11T10:45:02.335Z,4.40
2022-08-11T10:47:24.042Z,3.70
2022-08-11T10:49:28.707Z,4.10
2022-08-11T10:51:52.138Z,4.10
2022-08-11T10:54:14.090Z,3.53
2022-08-11T10:56:36.078Z,4.00
2022-08-11T10:58:51.894Z,3.70
2022-08-11T11:00:56.919Z,3.97
2022-08-11T11:03:22.275Z,4.27
2022-08-11T11:05:29.733Z,4.43
2022-08-11T11:07:44.402Z,4.40
2022-08-11T11:09:51.597Z,5.03
2022-08-11T11:12:14.884Z,4.00
2022-08-11T11:14:46.058Z,3.80
2022-08-11T11:17:07.833Z,4.03
2022-08-11T11:19:12.998Z,4.13
2022-08-11T11:21:21.437Z,3.90
2022-08-11T11:23:28.094Z,4.23
2022-08-11T11:26:06.244Z,3.60
2022-08-11T11:28:22.357Z,3.87
2022-08-11T11:30:33.692Z,3.60
2022-08-11T11:32:49.417Z,3.73
2022-08-11T11:35:27.836Z,3.73
2022-08-11T11:37:35.447Z,3.77
2022-08-11T11:39:38.402Z,3.33
2022-08-11T11:41:43.299Z,3.50
2022-08-11T11:43:46.726Z,3.60
2022-08-11T11:45:49.536Z,3.70
2022-08-11T11:47:54.387Z,3.53
2022-08-11T11:49:57.942Z,3.70
2022-08-11T11:52:01.734Z,3.60
2022-08-11T11:54:06.295Z,3.47
2022-08-11T11:56:13.928Z,3.30
2022-08-11T11:58:34.689Z,3.73
2022-08-11T12:01:03.863Z,3.30
2022-08-11T12:03:10.861Z,3.43
2022-08-11T12:05:14.672Z,3.20
2022-08-11T12:07:35.455Z,3.40
2022-08-11T12:09:41.151Z,3.60
2022-08-11T12:12:02.118Z,3.50
2022-08-11T12:14:10.705Z,3.63
2022-08-11T12:16:33.158Z,3.40
2022-08-11T12:18:38.203Z,3.70
2022-08-11T12:20:41.494Z,3.40
2022-08-11T12:23:01.877Z,3.37
2022-08-11T12:25:25.352Z,3.53
2022-08-11T12:27:29.058Z,3.80
2022-08-11T12:29:32.029Z,3.83
2022-08-11T12:31:35.757Z,3.47
2022-08-11T12:33:39.500Z,3.60
2022-08-11T12:36:00.744Z,3.83
2022-08-11T12:38:09.948Z,3.57
2022-08-11T12:40:43.731Z,3.77
2022-08-11T12:43:21.870Z,4.00
2022-08-11T12:45:28.830Z,3.70
2022-08-11T12:48:57.917Z,3.40
2022-08-11T12:50:34.425Z,3.80
2022-08-11T12:52:44.954Z,3.40
2022-08-11T12:54:58.890Z,3.33
2022-08-11T12:57:37.210Z,3.87
2022-08-11T13:00:05.254Z,3.50
2022-08-11T13:02:27.545Z,3.63
2022-08-11T13:04:50.531Z,3.60
2022-08-11T13:06:54.136Z,3.50
2022-08-11T13:09:01.255Z,3.37
2022-08-11T13:11:22.847Z,3.17
2022-08-11T13:13:53.772Z,3.97
2022-08-11T13:15:52.093Z,3.37
2022-08-11T13:17:56.185Z,3.50
2022-08-11T13:20:00.834Z,3.00
2022-08-11T13:22:07.374Z,3.37
2022-08-11T13:24:10.282Z,3.87
2022-08-11T13:26:14.137Z,4.10
2022-08-11T13:28:19.546Z,3.57
2022-08-11T13:30:47.127Z,3.63
2022-08-11T13:32:51.024Z,3.40
2022-08-11T13:34:53.898Z,3.20
2022-08-11T13:37:01.078Z,3.40
2022-08-11T13:39:04.741Z,3.33
2022-08-11T13:41:28.001Z,3.67
2022-08-11T13:43:31.053Z,3.47
2022-08-11T13:45:37.482Z,3.27
2022-08-11T13:47:41.929Z,3.40
2022-08-11T13:49:47.882Z,3.13
2022-08-11T13:51:51.487Z,3.67
2022-08-11T13:53:54.688Z,3.07
2022-08-11T13:56:05.155Z,3.40
2022-08-11T13:58:20.513Z,3.73
2022-08-11T14:00:35.787Z,3.27
2022-08-11T14:02:42.309Z,3.10
2022-08-11T14:04:52.825Z,3.63
2022-08-11T14:06:59.970Z,3.33
2022-08-11T14:09:04.651Z,2.87
2022-08-11T14:12:23.261Z,3.30
2022-08-11T14:13:51.149Z,3.10
2022-08-11T14:16:02.139Z,3.50
2022-08-11T14:18:08.124Z,3.50
2022-08-11T14:20:38.084Z,3.10
2022-08-11T14:22:37.829Z,3.57
2022-08-11T14:24:42.330Z,3.30
2022-08-11T14:26:45.406Z,3.30
2022-08-11T14:28:49.570Z,3.47
2022-08-11T14:31:01.488Z,3.10
2022-08-11T14:33:16.873Z,3.20
2022-08-11T14:35:20.388Z,3.80
2022-08-11T14:37:24.694Z,3.60
2022-08-11T14:39:28.712Z,3.33
2022-08-11T14:42:10.151Z,3.37
2022-08-11T14:44:33.427Z,3.13
2022-08-11T14:46:55.263Z,3.70
2022-08-11T14:49:00.109Z,3.43
2022-08-11T14:51:02.971Z,3.40
2022-08-11T14:53:09.707Z,3.40
2022-08-11T14:55:31.725Z,3.27
2022-08-11T14:57:55.579Z,3.60
2022-08-11T15:00:01.944Z,3.43
2022-08-11T15:02:23.681Z,3.20
2022-08-11T15:04:35.916Z,3.50
2022-08-11T15:06:39.587Z,3.57
2022-08-11T15:08:57.707Z,3.47
2022-08-11T15:11:00.524Z,3.20
2022-08-11T15:13:04.083Z,3.87
2022-08-11T15:15:26.741Z,3.50
2022-08-11T15:17:40.931Z,3.20
2022-08-11T15:20:03.282Z,3.00
2022-08-11T15:22:28.289Z,3.83
2022-08-11T15:24:33.502Z,3.40
2022-08-11T15:27:12.601Z,3.30
2022-08-11T15:29:38.603Z,3.43
2022-08-11T15:31:59.099Z,3.43
2022-08-11T15:34:22.506Z,3.10
2022-08-11T15:36:47.169Z,2.97
2022-08-11T15:38:56.590Z,3.23
2022-08-11T15:41:18.649Z,3.20
2022-08-11T15:43:43.563Z,3.20
2022-08-11T15:45:51.192Z,3.27
2022-08-11T15:48:12.915Z,3.47
2022-08-11T15:50:20.424Z,3.40
2022-08-11T15:52:30.837Z,3.50
2022-08-11T15:54:35.796Z,3.80
2022-08-11T15:56:42.177Z,3.50
2022-08-11T15:59:10.574Z,3.50
2022-08-11T16:01:48.164Z,3.20
2022-08-11T16:04:12.674Z,3.20
2022-08-11T16:06:15.569Z,3.27
2022-08-11T16:08:32.832Z,3.53
2022-08-11T16:10:36.959Z,3.10
2022-08-11T16:13:15.814Z,3.37
2022-08-11T16:15:35.918Z,3.53
2022-08-11T16:17:44.280Z,3.47
2022-08-11T16:19:49.722Z,3.40
2022-08-11T16:21:54.263Z,3.20
2022-08-11T16:24:01.310Z,3.33
2022-08-11T16:27:07.748Z,3.20
2022-08-11T16:28:29.457Z,3.50
2022-08-11T16:30:35.266Z,3.33
2022-08-11T16:32:41.422Z,3.03
2022-08-11T16:35:03.898Z,3.40
2022-08-11T16:37:24.268Z,3.70
2022-08-11T16:39:28.481Z,3.53
2022-08-11T16:41:52.077Z,3.10
2022-08-11T16:44:12.522Z,3.00
2022-08-11T16:46:35.893Z,3.50
2022-08-11T16:48:41.260Z,3.40
2022-08-11T16:50:44.627Z,3.40
2022-08-11T16:52:47.292Z,3.00
2022-08-11T16:54:52.723Z,3.50
2022-08-11T16:56:56.743Z,3.37
2022-08-11T16:59:15.166Z,4.00
2022-08-11T17:01:22.654Z,3.40
2022-08-11T17:03:43.185Z,3.23
2022-08-11T17:06:08.663Z,3.67
2022-08-11T17:08:29.521Z,3.53
2022-08-11T17:11:01.518Z,3.17
2022-08-11T17:13:10.130Z,3.20
2022-08-11T17:15:35.651Z,3.70
2022-08-11T17:17:40.613Z,3.50
2022-08-11T17:20:41.193Z,3.90
2022-08-11T17:22:27.990Z,3.53
2022-08-11T17:24:33.364Z,3.37
2022-08-11T17:26:58.163Z,3.33
2022-08-11T17:29:02.693Z,3.53
2022-08-11T17:31:24.024Z,4.00
2022-08-11T17:33:45.275Z,3.60
2022-08-11T17:35:48.984Z,4.00
2022-08-11T17:37:53.012Z,3.70
2022-08-11T17:39:57.799Z,3.80
2022-08-11T17:42:20.853Z,3.60
2022-08-11T17:44:51.025Z,4.17
2022-08-11T17:47:12.531Z,3.63
2022-08-11T17:49:20.291Z,3.57
2022-08-11T17:51:38.217Z,3.80
2022-08-11T17:54:09.965Z,3.60
2022-08-11T17:56:41.658Z,3.60
2022-08-11T17:59:05.304Z,3.70
2022-08-11T18:01:10.840Z,3.70
2022-08-11T18:03:29.773Z,3.77
2022-08-11T18:05:34.488Z,3.83
2022-08-11T18:07:56.053Z,4.10
2022-08-11T18:10:16.779Z,3.80
2022-08-11T18:12:37.127Z,4.10
2022-08-11T18:15:00.779Z,4.10
2022-08-11T18:17:21.246Z,3.80
2022-08-11T18:19:41.768Z,4.43
2022-08-11T18:22:14.351Z,3.67
2022-08-11T18:24:41.574Z,3.97
2022-08-11T18:27:04.457Z,4.87
2022-08-11T18:29:26.775Z,4.07
2022-08-11T18:31:52.409Z,4.50
2022-08-11T18:34:14.768Z,4.00
2022-08-11T18:36:39.398Z,3.90
2022-08-11T18:39:01.299Z,4.77
2022-08-11T18:41:23.855Z,3.90
2022-08-11T18:43:47.010Z,4.10
2022-08-11T18:46:10.959Z,3.97
2022-08-11T18:48:42.535Z,3.60
2022-08-11T18:51:31.740Z,4.20
2022-08-11T18:53:47.106Z,3.80
2022-08-11T18:56:08.439Z,4.87
2022-08-11T18:58:30.966Z,3.93
2022-08-11T19:00:53.112Z,4.30
2022-08-11T19:03:15.627Z,4.00
2022-08-11T19:06:32.422Z,4.30
2022-08-11T19:08:22.030Z,3.57
2022-08-11T19:10:43.076Z,4.10
2022-08-11T19:13:05.300Z,3.87
2022-08-11T19:15:27.893Z,4.10
2022-08-11T19:17:49.717Z,3.70
2022-08-11T19:20:11.103Z,4.20
2022-08-11T19:22:33.802Z,3.73
2022-08-11T19:24:56.297Z,3.50
2022-08-11T19:27:17.614Z,4.40
2022-08-11T19:30:08.040Z,4.30
2022-08-11T19:32:22.198Z,4.53
2022-08-11T19:34:44.033Z,4.87
2022-08-11T19:37:06.119Z,4.03
2022-08-11T19:39:29.768Z,4.23
2022-08-11T19:41:52.186Z,4.00
2022-08-11T19:44:19.264Z,4.10
2022-08-11T19:46:41.821Z,4.20
2022-08-11T19:49:04.486Z,4.03
2022-08-11T19:51:26.431Z,4.23
2022-08-11T19:53:48.291Z,3.77
2022-08-11T19:56:11.941Z,4.50
2022-08-11T19:58:34.360Z,3.87
2022-08-11T20:00:55.218Z,4.30
2022-08-11T20:03:16.118Z,3.70
2022-08-11T20:05:36.411Z,3.70
2022-08-11T20:07:57.197Z,3.53
2022-08-11T20:10:21.136Z,4.00
2022-08-11T20:12:46.068Z,4.30
2022-08-11T20:15:09.543Z,4.50
2022-08-11T20:17:32.573Z,4.43
2022-08-11T20:19:57.343Z,4.70
2022-08-11T20:22:19.469Z,4.47
2022-08-11T20:24:40.444Z,4.70
2022-08-11T20:27:01.316Z,3.90
2022-08-11T20:29:25.119Z,4.70
2022-08-11T20:31:45.609Z,4.43
2022-08-11T20:34:06.693Z,4.17
2022-08-11T20:36:31.487Z,4.10
2022-08-11T20:38:53.780Z,4.50
2022-08-11T20:41:16.211Z,4.30
2022-08-11T20:44:05.792Z,4.20
2022-08-11T20:46:23.864Z,4.13
2022-08-11T20:48:45.851Z,4.10
2022-08-11T20:51:08.329Z,4.30
2022-08-11T20:53:30.680Z,4.27
2022-08-11T20:55:57.699Z,4.23
2022-08-11T20:58:21.968Z,3.93
2022-08-11T21:00:47.475Z,4.00
2022-08-11T21:03:10.638Z,3.53
2022-08-11T21:06:10.341Z,3.80
2022-08-11T21:08:15.435Z,4.37
2022-08-11T21:10:38.361Z,4.00
2022-08-11T21:13:25.131Z,4.20
2022-08-11T21:16:01.320Z,4.00
2022-08-11T21:18:27.514Z,3.70
2022-08-11T21:20:51.255Z,4.10
2022-08-11T21:23:23.361Z,3.57
2022-08-11T21:25:47.945Z,4.70
2022-08-11T21:28:09.303Z,4.70
2022-08-11T21:30:30.198Z,4.23
2022-08-11T21:32:51.967Z,3.70
2022-08-11T21:35:15.434Z,4.07
2022-08-11T21:37:37.872Z,3.73
2022-08-11T21:40:00.484Z,3.80
2022-08-11T21:42:23.805Z,4.00
2022-08-11T21:44:45.633Z,4.00
2022-08-11T21:47:06.935Z,3.53
2022-08-11T21:49:29.786Z,3.37
2022-08-11T21:51:51.368Z,3.73
2022-08-11T21:54:11.726Z,3.63
2022-08-11T21:56:33.031Z,3.67
2022-08-11T21:58:54.245Z,3.80
2022-08-11T22:01:15.111Z,3.67
2022-08-11T22:03:46.425Z,3.63
2022-08-11T22:06:11.988Z,3.70
2022-08-11T22:08:33.994Z,3.47
2022-08-11T22:10:54.468Z,4.17
2022-08-11T22:13:14.780Z,3.17
2022-08-11T22:15:35.123Z,3.63
2022-08-11T22:17:58.055Z,4.03
2022-08-11T22:20:19.585Z,4.37
2022-08-11T22:22:52.185Z,4.10
2022-08-11T22:25:18.634Z,4.30
2022-08-11T22:27:39.724Z,4.00
2022-08-11T22:30:00.265Z,4.33
2022-08-11T22:32:20.584Z,4.20
2022-08-11T22:34:52.705Z,4.33
2022-08-11T22:37:27.305Z,4.27
2022-08-11T22:40:02.400Z,4.30
2022-08-11T22:42:33.679Z,4.03
2022-08-11T22:44:54.560Z,4.17
2022-08-11T22:47:18.778Z,4.60
2022-08-11T22:49:57.331Z,4.40
2022-08-11T22:52:19.751Z,4.67
2022-08-11T22:54:40.764Z,4.17
2022-08-11T22:57:01.638Z,4.10
2022-08-11T22:59:24.916Z,4.37
2022-08-11T23:01:54.734Z,4.13
2022-08-11T23:04:16.779Z,4.00
2022-08-11T23:06:38.662Z,4.20
2022-08-11T23:09:00.173Z,3.67
2022-08-11T23:11:21.766Z,4.40
2022-08-11T23:13:42.203Z,4.50
2022-08-11T23:16:03.907Z,4.00
2022-08-11T23:18:25.418Z,4.50
2022-08-11T23:20:53.011Z,4.43
2022-08-11T23:23:15.117Z,4.10
2022-08-11T23:25:35.440Z,4.40
2022-08-11T23:27:57.252Z,4.60
2022-08-11T23:30:19.574Z,4.47
2022-08-11T23:32:45.479Z,4.20
2022-08-11T23:35:37.911Z,4.60
2022-08-11T23:37:50.767Z,4.17
2022-08-11T23:40:11.131Z,3.90
2022-08-11T23:42:31.408Z,3.80
2022-08-11T23:44:56.474Z,3.90
2022-08-11T23:47:19.488Z,4.10
2022-08-11T23:49:41.716Z,4.37
2022-08-11T23:52:03.583Z,4.03
2022-08-11T23:54:24.475Z,4.27
2022-08-11T23:56:45.819Z,4.30
2022-08-11T23:59:08.448Z,4.20
